Parker, Indiana
Current Conditions -  °F | °C
As of 6:53 AM on Friday 24 Oct 2014 (Local Time) from KMIE Reporting Station
Clear Clear  
Wind Chill: 39°   Ceiling: Unl
Heat Index: 42°   Visibility: 10mi
Dew Point: 37°   Wind: 5mph
Humidity: 82%   Direction: 200°SSW
Pressure: 30.1"   Gusts: NA
Location:  40.2107°N, 85.182°W
Report Text: KMIE 241053Z 20004KT 10SM CLR 06/03 A3010 RMK AO2 SLP193 T00560028
Loading
Personal Weather Stations






























Interactive Weather Map
Tropical Storm Tracking
New forecast layout! Learn more

10-Day Weather Forecast

Advertisements
Track Severe Weather on mobile